createdAt,value
2022-10-31T00:01:05.577Z,10.40
2022-10-31T00:03:25.768Z,11.20
2022-10-31T00:05:44.702Z,9.80
2022-10-31T00:08:02.201Z,11.40
2022-10-31T00:10:16.554Z,11.30
2022-10-31T00:12:30.181Z,10.20
2022-10-31T00:14:43.415Z,10.30
2022-10-31T00:16:56.713Z,11.70
2022-10-31T00:19:11.046Z,10.30
2022-10-31T00:21:27.039Z,10.70
2022-10-31T00:23:40.216Z,11.10
2022-10-31T00:25:53.417Z,12.90
2022-10-31T00:28:06.805Z,11.80
2022-10-31T00:30:20.428Z,11.80
2022-10-31T00:32:35.911Z,13.40
2022-10-31T00:34:50.517Z,16.20
2022-10-31T00:37:04.668Z,11.40
2022-10-31T00:39:20.206Z,15.00
2022-10-31T00:41:34.439Z,14.30
2022-10-31T00:43:48.253Z,17.10
2022-10-31T00:46:01.612Z,12.30
2022-10-31T00:48:16.182Z,15.80
2022-10-31T00:50:30.772Z,15.80
2022-10-31T00:52:44.204Z,12.70
2022-10-31T00:54:58.553Z,15.00
2022-10-31T00:57:12.338Z,11.50
2022-10-31T00:59:26.458Z,13.20
2022-10-31T01:01:39.789Z,15.30
2022-10-31T01:03:54.270Z,18.00
2022-10-31T01:06:09.408Z,15.00
2022-10-31T01:08:23.521Z,12.10
2022-10-31T01:10:36.745Z,11.10
2022-10-31T01:12:51.831Z,14.80
2022-10-31T01:15:07.321Z,14.70
2022-10-31T01:17:22.450Z,15.50
2022-10-31T01:19:35.903Z,17.00
2022-10-31T01:21:49.232Z,13.90
2022-10-31T01:24:07.413Z,13.60
2022-10-31T01:26:27.179Z,11.60
2022-10-31T01:28:41.833Z,12.40
2022-10-31T01:30:55.881Z,13.80
2022-10-31T01:33:09.529Z,15.40
2022-10-31T01:35:22.707Z,11.60
2022-10-31T01:37:37.682Z,11.30
2022-10-31T01:39:52.427Z,13.50
2022-10-31T01:42:08.181Z,11.90
2022-10-31T01:44:57.868Z,12.30
2022-10-31T01:47:17.469Z,9.30
2022-10-31T01:49:36.044Z,9.50
2022-10-31T01:51:54.779Z,9.50
2022-10-31T01:54:10.662Z,10.10
2022-10-31T01:56:25.032Z,14.00
2022-10-31T01:58:39.996Z,7.70
2022-10-31T02:00:56.298Z,7.90
2022-10-31T02:03:09.974Z,12.50
2022-10-31T02:05:28.178Z,14.30
2022-10-31T02:07:46.417Z,12.20
2022-10-31T02:10:01.578Z,12.30
2022-10-31T02:12:18.028Z,13.30
2022-10-31T02:14:33.803Z,8.10
2022-10-31T02:16:46.993Z,8.20
2022-10-31T02:19:02.143Z,10.00
2022-10-31T02:21:24.250Z,11.00
2022-10-31T02:24:04.310Z,13.70
2022-10-31T02:26:36.597Z,10.10
2022-10-31T02:29:18.515Z,7.70
2022-10-31T02:31:41.038Z,9.40
2022-10-31T02:33:59.008Z,9.20
2022-10-31T02:36:21.285Z,8.00
2022-10-31T02:38:51.464Z,7.90
2022-10-31T02:41:21.089Z,5.00
2022-10-31T02:43:47.928Z,8.20
2022-10-31T02:46:07.468Z,8.30
2022-10-31T02:48:24.116Z,11.40
2022-10-31T02:50:42.256Z,10.30
2022-10-31T02:52:57.592Z,11.20
2022-10-31T02:55:31.853Z,11.20
2022-10-31T02:57:47.629Z,11.20
2022-10-31T03:00:05.106Z,9.40
2022-10-31T03:02:34.301Z,15.10
2022-10-31T03:05:01.446Z,18.00
2022-10-31T03:07:25.560Z,17.20
2022-10-31T03:09:47.806Z,17.80
2022-10-31T03:12:09.083Z,15.40
2022-10-31T03:14:29.969Z,19.90
2022-10-31T03:16:52.127Z,12.30
2022-10-31T03:19:09.963Z,18.70
2022-10-31T03:21:29.160Z,13.40
2022-10-31T03:23:45.024Z,10.10
2022-10-31T03:26:09.759Z,16.40
2022-10-31T03:28:27.196Z,14.70
2022-10-31T03:30:42.780Z,14.00
2022-10-31T03:33:00.888Z,9.30
2022-10-31T03:35:18.823Z,14.00
2022-10-31T03:37:35.320Z,14.40
2022-10-31T03:39:52.290Z,10.40
2022-10-31T03:42:13.962Z,12.00
2022-10-31T03:44:32.134Z,15.90
2022-10-31T03:46:48.761Z,8.00
2022-10-31T03:49:03.064Z,6.00
2022-10-31T03:51:21.945Z,7.90
2022-10-31T03:53:41.513Z,8.90
2022-10-31T03:56:02.281Z,7.90
2022-10-31T03:58:23.576Z,10.20
2022-10-31T04:00:38.549Z,18.30
2022-10-31T04:02:56.738Z,12.40
2022-10-31T04:05:12.824Z,13.80
2022-10-31T04:07:29.989Z,11.10
2022-10-31T04:09:46.975Z,12.30
2022-10-31T04:12:04.812Z,11.70
2022-10-31T04:14:42.828Z,12.60
2022-10-31T04:16:57.468Z,11.20
2022-10-31T04:19:18.074Z,12.00
2022-10-31T04:21:36.478Z,19.60
2022-10-31T04:23:50.536Z,13.60
2022-10-31T04:26:07.859Z,8.50
2022-10-31T04:28:22.917Z,8.00
2022-10-31T04:30:36.527Z,14.70
2022-10-31T04:32:50.594Z,10.80
2022-10-31T04:35:05.282Z,15.40
2022-10-31T04:37:19.150Z,17.20
2022-10-31T04:39:35.336Z,11.10
2022-10-31T04:42:28.669Z,10.50
2022-10-31T04:44:45.468Z,14.10
2022-10-31T04:46:58.662Z,11.90
2022-10-31T04:49:11.904Z,11.30
2022-10-31T04:51:25.231Z,14.40
2022-10-31T04:53:38.553Z,13.90
2022-10-31T04:56:11.112Z,12.50
2022-10-31T04:58:29.325Z,13.00
2022-10-31T05:00:42.536Z,11.90
2022-10-31T05:02:56.857Z,10.70
2022-10-31T05:05:13.218Z,14.50
2022-10-31T05:07:26.879Z,8.20
2022-10-31T05:09:40.844Z,11.60
2022-10-31T05:11:54.087Z,16.00
2022-10-31T05:14:26.568Z,16.50
2022-10-31T05:19:29.326Z,17.50
2022-10-31T05:22:03.009Z,16.50
2022-10-31T05:24:19.204Z,15.30
2022-10-31T05:26:33.439Z,17.50
2022-10-31T05:28:46.881Z,22.10
2022-10-31T05:31:01.127Z,17.80
2022-10-31T05:33:15.232Z,13.60
2022-10-31T05:36:00.779Z,10.60
2022-10-31T05:38:28.214Z,14.60
2022-10-31T05:40:43.303Z,16.80
2022-10-31T05:42:59.038Z,9.80
2022-10-31T05:45:15.611Z,19.40
2022-10-31T05:47:39.169Z,15.10
2022-10-31T05:50:14.196Z,15.30
2022-10-31T05:52:44.908Z,13.60
2022-10-31T05:55:15.652Z,12.50
2022-10-31T05:57:39.396Z,15.90
2022-10-31T05:59:55.296Z,20.40
2022-10-31T06:02:09.470Z,15.60
2022-10-31T06:04:58.029Z,22.30
2022-10-31T06:07:12.548Z,17.60
2022-10-31T06:09:25.871Z,17.90
2022-10-31T06:11:39.285Z,22.90
2022-10-31T06:13:52.623Z,15.40
2022-10-31T06:16:10.028Z,16.70
2022-10-31T06:18:23.427Z,14.00
2022-10-31T06:20:38.946Z,24.40
2022-10-31T06:22:52.177Z,24.60
2022-10-31T06:25:05.468Z,13.50
2022-10-31T06:27:25.333Z,11.50
2022-10-31T06:29:41.247Z,14.10
2022-10-31T06:32:00.087Z,12.00
2022-10-31T06:34:15.009Z,17.00
2022-10-31T06:36:28.716Z,18.60
2022-10-31T06:38:42.661Z,16.80
2022-10-31T06:40:56.554Z,19.20
2022-10-31T06:43:13.415Z,19.50
2022-10-31T06:45:27.860Z,18.20
2022-10-31T06:48:17.772Z,18.20
2022-10-31T06:50:50.001Z,15.70
2022-10-31T06:53:04.103Z,21.50
2022-10-31T06:55:20.399Z,18.80
2022-10-31T06:57:33.568Z,15.80
2022-10-31T06:59:46.918Z,15.70
2022-10-31T07:02:04.895Z,19.30
2022-10-31T07:04:19.693Z,16.40
2022-10-31T07:06:34.410Z,22.50
2022-10-31T07:08:48.696Z,16.60
2022-10-31T07:11:02.761Z,14.30
2022-10-31T07:13:20.284Z,15.30
2022-10-31T07:15:41.101Z,27.50
2022-10-31T07:17:54.794Z,18.20
2022-10-31T07:20:09.149Z,14.30
2022-10-31T07:22:23.327Z,23.00
2022-10-31T07:24:36.722Z,18.60
2022-10-31T07:27:15.863Z,15.90
2022-10-31T07:29:30.845Z,10.80
2022-10-31T07:31:44.105Z,14.80
2022-10-31T07:34:02.177Z,10.90
2022-10-31T07:36:16.914Z,18.00
2022-10-31T07:38:31.280Z,22.40
2022-10-31T07:40:53.869Z,15.70
2022-10-31T07:43:11.502Z,16.60
2022-10-31T07:45:47.310Z,16.20
2022-10-31T07:48:35.606Z,22.50
2022-10-31T07:51:13.615Z,22.20
2022-10-31T07:53:45.766Z,17.50
2022-10-31T07:56:10.074Z,15.10
2022-10-31T07:58:24.941Z,19.20
2022-10-31T08:00:39.371Z,16.20
2022-10-31T08:02:52.727Z,14.90
2022-10-31T08:05:26.744Z,14.90
2022-10-31T08:08:00.139Z,11.00
2022-10-31T08:10:14.343Z,12.40
2022-10-31T08:12:29.224Z,12.10
2022-10-31T08:14:42.647Z,21.10
2022-10-31T08:16:56.817Z,13.00
2022-10-31T08:19:17.044Z,18.20
2022-10-31T08:21:30.258Z,16.00
2022-10-31T08:23:45.272Z,21.60
2022-10-31T08:26:01.787Z,14.50
2022-10-31T08:28:17.775Z,21.00
2022-10-31T08:30:36.905Z,30.90
2022-10-31T08:33:26.114Z,20.60
2022-10-31T08:35:57.728Z,19.40
2022-10-31T08:38:41.338Z,19.00
2022-10-31T08:40:57.565Z,22.40
2022-10-31T08:43:15.865Z,22.70
2022-10-31T08:45:29.696Z,25.40
2022-10-31T08:47:43.969Z,20.90
2022-10-31T08:49:57.231Z,19.90
2022-10-31T08:52:14.297Z,19.50
2022-10-31T08:54:32.857Z,20.10
2022-10-31T08:57:06.339Z,16.50
2022-10-31T08:59:27.940Z,22.20
2022-10-31T09:01:59.618Z,21.20
2022-10-31T09:04:14.474Z,16.50
2022-10-31T09:06:28.253Z,15.50
2022-10-31T09:08:43.895Z,20.00
2022-10-31T09:11:00.390Z,26.00
2022-10-31T09:13:36.420Z,23.30
2022-10-31T09:16:19.860Z,16.30
2022-10-31T09:18:34.114Z,17.30
2022-10-31T09:20:49.837Z,24.10
2022-10-31T09:23:08.165Z,15.90
2022-10-31T09:25:23.776Z,22.90
2022-10-31T09:27:44.802Z,23.50
2022-10-31T09:29:58.206Z,22.40
2022-10-31T09:32:11.707Z,13.90
2022-10-31T09:34:31.316Z,22.70
2022-10-31T09:37:00.590Z,22.70
2022-10-31T09:39:14.020Z,16.80
2022-10-31T09:41:33.692Z,19.30
2022-10-31T09:43:54.699Z,10.90
2022-10-31T09:46:15.373Z,21.10
2022-10-31T09:48:55.148Z,9.50
2022-10-31T09:51:21.089Z,3.90
2022-10-31T09:54:00.154Z,11.50
2022-10-31T09:56:17.611Z,27.80
2022-10-31T09:58:36.747Z,27.70
2022-10-31T10:00:52.731Z,23.80
2022-10-31T10:03:15.839Z,34.20
2022-10-31T10:05:38.867Z,21.30
2022-10-31T10:07:59.695Z,11.70
2022-10-31T10:10:43.442Z,10.20
2022-10-31T10:13:36.996Z,10.60
2022-10-31T10:16:10.582Z,9.10
2022-10-31T10:18:32.880Z,8.80
2022-10-31T10:20:53.528Z,7.10
2022-10-31T10:23:25.755Z,11.40
2022-10-31T10:25:43.657Z,16.00
2022-10-31T10:28:08.052Z,18.70
2022-10-31T10:30:23.352Z,20.80
2022-10-31T10:32:49.349Z,23.50
2022-10-31T10:35:15.441Z,28.00
2022-10-31T10:37:38.511Z,27.90
2022-10-31T10:39:54.245Z,25.10
2022-10-31T10:42:29.911Z,23.80
2022-10-31T10:45:04.736Z,26.00
2022-10-31T10:47:34.735Z,29.10
2022-10-31T10:49:54.424Z,27.10
2022-10-31T10:54:59.002Z,23.20
2022-10-31T10:57:24.838Z,28.30
2022-10-31T10:59:39.735Z,31.80
2022-10-31T11:01:54.422Z,34.90
2022-10-31T11:04:16.109Z,39.40
2022-10-31T11:06:30.253Z,38.90
2022-10-31T11:08:43.490Z,40.60
2022-10-31T11:11:06.885Z,26.50
2022-10-31T11:13:28.791Z,27.90
2022-10-31T11:15:54.233Z,21.80
2022-10-31T11:18:07.579Z,18.60
2022-10-31T11:20:36.745Z,18.20
2022-10-31T11:22:50.953Z,13.70
2022-10-31T11:25:04.180Z,10.60
2022-10-31T11:27:24.708Z,9.00
2022-10-31T11:29:38.843Z,7.90
2022-10-31T11:31:55.070Z,7.50
2022-10-31T11:34:11.768Z,7.00
2022-10-31T11:36:28.773Z,21.80
2022-10-31T11:38:47.939Z,9.00
2022-10-31T11:41:08.293Z,7.30
2022-10-31T11:43:23.697Z,8.30
2022-10-31T11:45:40.279Z,7.80
2022-10-31T11:47:59.926Z,7.40
2022-10-31T11:50:23.848Z,7.10
2022-10-31T11:52:39.738Z,17.30
2022-10-31T11:54:58.510Z,18.50
2022-10-31T11:57:26.087Z,24.00
2022-10-31T11:59:39.489Z,26.40
2022-10-31T12:01:56.954Z,29.30
2022-10-31T12:04:16.579Z,31.90
2022-10-31T12:06:36.859Z,25.20
2022-10-31T12:08:50.977Z,22.30
2022-10-31T12:11:12.505Z,21.60
2022-10-31T12:13:37.842Z,19.80
2022-10-31T12:15:57.981Z,15.60
2022-10-31T12:18:29.480Z,14.20
2022-10-31T12:20:57.387Z,18.10
2022-10-31T12:23:20.198Z,26.10
2022-10-31T12:25:44.329Z,26.60
2022-10-31T12:28:09.602Z,32.90
2022-10-31T12:30:28.718Z,54.20
2022-10-31T12:32:57.386Z,60.70
2022-10-31T12:35:35.492Z,67.20
2022-10-31T12:38:02.703Z,63.20
2022-10-31T12:40:45.677Z,71.80
2022-10-31T12:43:11.828Z,66.60
2022-10-31T12:45:52.880Z,65.70
2022-10-31T12:48:24.577Z,59.10
2022-10-31T12:50:53.098Z,58.90
2022-10-31T12:55:52.938Z,67.70
2022-10-31T12:58:13.466Z,70.80
2022-10-31T13:00:30.394Z,67.50
2022-10-31T13:02:50.655Z,64.30
2022-10-31T13:05:07.166Z,54.50
2022-10-31T13:07:26.452Z,56.00
2022-10-31T13:09:43.369Z,48.80
2022-10-31T13:12:01.505Z,41.30
2022-10-31T13:14:20.363Z,35.80
2022-10-31T13:16:39.157Z,32.20
2022-10-31T13:18:59.326Z,32.20
2022-10-31T13:21:18.542Z,31.80
2022-10-31T13:23:50.489Z,31.70
2022-10-31T13:26:08.142Z,30.90
2022-10-31T13:28:33.756Z,35.50
2022-10-31T13:30:47.961Z,29.70
2022-10-31T13:33:05.216Z,34.60
2022-10-31T13:35:24.795Z,29.70
2022-10-31T13:37:42.624Z,21.80
2022-10-31T13:40:23.718Z,19.90
2022-10-31T13:42:51.818Z,19.70
2022-10-31T13:45:18.798Z,16.10
2022-10-31T13:47:33.953Z,14.00
2022-10-31T13:49:47.416Z,12.30
2022-10-31T13:52:09.340Z,10.60
2022-10-31T13:54:37.688Z,15.50
2022-10-31T13:56:56.761Z,14.90
2022-10-31T13:59:25.365Z,16.40
2022-10-31T14:01:39.413Z,11.20
2022-10-31T14:04:12.298Z,8.60
2022-10-31T14:06:39.337Z,20.00
2022-10-31T14:08:56.247Z,17.70
2022-10-31T14:11:12.258Z,16.90
2022-10-31T14:13:30.763Z,17.10
2022-10-31T14:15:56.684Z,28.80
2022-10-31T14:18:24.684Z,27.00
2022-10-31T14:20:48.111Z,26.00
2022-10-31T14:23:02.457Z,30.80
2022-10-31T14:25:35.687Z,27.60
2022-10-31T14:27:55.778Z,23.40
2022-10-31T14:30:26.708Z,20.10
2022-10-31T14:32:40.917Z,22.30
2022-10-31T14:35:01.722Z,25.30
2022-10-31T14:37:36.346Z,22.70
2022-10-31T14:40:02.659Z,14.50
2022-10-31T14:42:34.887Z,14.40
2022-10-31T14:45:21.817Z,25.50
2022-10-31T14:47:49.248Z,19.80
2022-10-31T14:50:37.599Z,21.70
2022-10-31T14:52:56.897Z,22.00
2022-10-31T14:55:16.597Z,18.30
2022-10-31T14:57:34.081Z,23.70
2022-10-31T14:59:51.622Z,28.10
2022-10-31T15:02:13.817Z,20.00
2022-10-31T15:04:29.869Z,28.50
2022-10-31T15:06:50.324Z,30.10
2022-10-31T15:09:03.455Z,27.40
2022-10-31T15:11:20.979Z,31.00
2022-10-31T15:13:35.222Z,38.30
2022-10-31T15:15:52.324Z,38.40
2022-10-31T15:18:08.777Z,31.70
2022-10-31T15:20:25.906Z,34.70
2022-10-31T15:22:39.258Z,35.90
2022-10-31T15:24:58.264Z,38.80
2022-10-31T15:27:18.297Z,27.40
2022-10-31T15:29:33.814Z,27.50
2022-10-31T15:31:56.842Z,30.00
2022-10-31T15:34:26.674Z,25.10
2022-10-31T15:36:41.056Z,30.20
2022-10-31T15:38:54.637Z,19.20
2022-10-31T15:41:11.342Z,24.90
2022-10-31T15:43:25.189Z,17.20
2022-10-31T15:45:39.280Z,16.60
2022-10-31T15:47:59.134Z,13.30
2022-10-31T15:50:27.247Z,12.50
2022-10-31T15:52:48.016Z,14.10
2022-10-31T15:55:05.759Z,4.60
2022-10-31T15:57:20.112Z,27.30
2022-10-31T15:59:36.118Z,28.90
2022-10-31T16:02:02.620Z,24.60
2022-10-31T16:04:29.478Z,29.60
2022-10-31T16:06:43.674Z,39.20
2022-10-31T16:08:57.865Z,39.80
2022-10-31T16:11:27.184Z,33.70
2022-10-31T16:13:42.665Z,35.90
2022-10-31T16:16:21.616Z,34.20
2022-10-31T16:18:39.442Z,31.80
2022-10-31T16:20:57.987Z,33.80
2022-10-31T16:23:19.919Z,44.30
2022-10-31T16:25:39.220Z,49.30
2022-10-31T16:27:59.186Z,48.20
2022-10-31T16:30:43.961Z,52.10
2022-10-31T16:33:03.485Z,53.50
2022-10-31T16:35:32.389Z,44.60
2022-10-31T16:37:47.319Z,47.30
2022-10-31T16:40:00.718Z,53.50
2022-10-31T16:42:15.745Z,52.50
2022-10-31T16:44:30.240Z,46.80
2022-10-31T16:46:44.174Z,39.80
2022-10-31T16:48:58.330Z,41.90
2022-10-31T16:51:13.255Z,38.90
2022-10-31T16:53:28.428Z,40.90
2022-10-31T16:55:46.635Z,40.60
2022-10-31T16:58:02.540Z,33.90
2022-10-31T17:00:21.464Z,35.00
2022-10-31T17:02:35.233Z,37.90
2022-10-31T17:04:50.905Z,35.60
2022-10-31T17:07:07.207Z,36.30
2022-10-31T17:09:22.016Z,36.30
2022-10-31T17:11:36.354Z,41.30
2022-10-31T17:13:49.573Z,41.40
2022-10-31T17:16:05.307Z,43.20
2022-10-31T17:18:22.909Z,42.80
2022-10-31T17:20:42.124Z,43.70
2022-10-31T17:22:55.382Z,44.40
2022-10-31T17:25:08.952Z,41.10
2022-10-31T17:27:21.993Z,43.30
2022-10-31T17:29:37.032Z,40.40
2022-10-31T17:31:50.621Z,36.80
2022-10-31T17:34:05.055Z,36.20
2022-10-31T17:36:18.199Z,37.70
2022-10-31T17:38:31.282Z,38.70
2022-10-31T17:40:45.344Z,42.00
2022-10-31T17:43:00.991Z,51.80
2022-10-31T17:45:16.760Z,49.70
2022-10-31T17:47:30.080Z,46.50
2022-10-31T17:49:43.307Z,53.70
2022-10-31T17:51:56.917Z,49.80
2022-10-31T17:54:10.940Z,55.00
2022-10-31T17:56:25.134Z,46.20
2022-10-31T17:58:38.802Z,44.00
2022-10-31T18:00:52.592Z,41.60
2022-10-31T18:03:07.206Z,42.40
2022-10-31T18:05:20.921Z,36.90
2022-10-31T18:07:34.180Z,46.90
2022-10-31T18:09:47.320Z,42.60
2022-10-31T18:12:00.526Z,34.60
2022-10-31T18:14:15.297Z,28.60
2022-10-31T18:16:29.865Z,22.40
2022-10-31T18:18:44.333Z,51.10
2022-10-31T18:21:00.179Z,55.80
2022-10-31T18:23:13.455Z,82.80
2022-10-31T18:25:26.771Z,85.10
2022-10-31T18:27:39.986Z,97.00
2022-10-31T18:29:54.171Z,95.00
2022-10-31T18:32:09.529Z,96.20
2022-10-31T18:34:23.431Z,89.20
2022-10-31T18:36:37.091Z,91.50
2022-10-31T18:38:50.332Z,86.70
2022-10-31T18:41:03.602Z,80.60
2022-10-31T18:43:16.881Z,81.00
2022-10-31T18:45:45.386Z,74.10
2022-10-31T18:48:00.801Z,78.20
2022-10-31T18:50:14.858Z,75.20
2022-10-31T18:52:28.063Z,70.20
2022-10-31T18:54:41.268Z,63.10
2022-10-31T18:56:55.766Z,60.10
2022-10-31T18:59:09.554Z,53.30
2022-10-31T19:01:23.745Z,49.90
2022-10-31T19:03:36.908Z,48.60
2022-10-31T19:05:51.071Z,56.40
2022-10-31T19:08:04.622Z,55.40
2022-10-31T19:10:17.923Z,54.50
2022-10-31T19:12:32.120Z,54.10
2022-10-31T19:14:45.207Z,48.50
2022-10-31T19:17:02.186Z,48.90
2022-10-31T19:19:15.823Z,45.90
2022-10-31T19:21:29.492Z,39.00
2022-10-31T19:23:44.024Z,39.10
2022-10-31T19:26:01.320Z,39.40
2022-10-31T19:28:14.674Z,42.90
2022-10-31T19:30:27.849Z,43.90
2022-10-31T19:32:41.579Z,42.80
2022-10-31T19:34:55.256Z,41.70
2022-10-31T19:37:08.545Z,46.30
2022-10-31T19:39:22.580Z,46.50
2022-10-31T19:41:36.839Z,38.80
2022-10-31T19:43:50.259Z,43.10
2022-10-31T19:46:06.941Z,47.20
2022-10-31T19:48:20.083Z,45.10
2022-10-31T19:50:33.273Z,36.00
2022-10-31T19:52:46.557Z,36.20
2022-10-31T19:54:59.952Z,40.30
2022-10-31T19:57:13.193Z,39.00
2022-10-31T19:59:27.496Z,40.90
2022-10-31T20:01:41.733Z,37.80
2022-10-31T20:03:55.411Z,40.10
2022-10-31T20:06:11.503Z,39.60
2022-10-31T20:08:25.239Z,34.40
2022-10-31T20:10:39.428Z,32.70
2022-10-31T20:12:53.496Z,31.20
2022-10-31T20:15:06.696Z,30.90
2022-10-31T20:17:19.907Z,34.80
2022-10-31T20:19:34.627Z,38.90
2022-10-31T20:21:48.031Z,42.00
2022-10-31T20:24:04.203Z,41.20
2022-10-31T20:26:19.732Z,45.90
2022-10-31T20:28:33.328Z,45.30
2022-10-31T20:30:46.968Z,51.20
2022-10-31T20:33:00.207Z,52.10
2022-10-31T20:35:14.360Z,56.50
2022-10-31T20:37:27.576Z,51.30
2022-10-31T20:39:40.691Z,44.70
2022-10-31T20:41:54.296Z,46.60
2022-10-31T20:44:08.679Z,51.80
2022-10-31T20:46:24.590Z,54.50
2022-10-31T20:48:37.986Z,55.90
2022-10-31T20:50:51.637Z,54.80
2022-10-31T20:53:04.959Z,49.40
2022-10-31T20:55:18.536Z,47.00
2022-10-31T20:57:32.081Z,50.00
2022-10-31T20:59:45.302Z,62.60
2022-10-31T21:01:58.661Z,56.90
2022-10-31T21:04:13.386Z,50.20
2022-10-31T21:06:27.388Z,39.70
2022-10-31T21:08:41.782Z,31.40
2022-10-31T21:10:55.415Z,33.60
2022-10-31T21:13:08.967Z,38.50
2022-10-31T21:15:22.276Z,30.60
2022-10-31T21:17:36.148Z,41.80
2022-10-31T21:19:49.610Z,40.50
2022-10-31T21:22:04.068Z,32.70
2022-10-31T21:24:21.817Z,36.60
2022-10-31T21:26:37.518Z,41.40
2022-10-31T21:28:51.432Z,37.90
2022-10-31T21:31:09.024Z,36.20
2022-10-31T21:33:22.322Z,39.50
2022-10-31T21:35:35.750Z,39.70
2022-10-31T21:37:48.956Z,42.70
2022-10-31T21:40:02.367Z,38.20
2022-10-31T21:42:17.550Z,32.00
2022-10-31T21:44:33.941Z,34.90
2022-10-31T21:46:49.245Z,36.00
2022-10-31T21:49:04.931Z,33.50
2022-10-31T21:51:19.828Z,21.70
2022-10-31T21:53:49.269Z,16.90
2022-10-31T21:56:06.380Z,6.80
2022-10-31T21:58:19.601Z,13.00
2022-10-31T22:00:32.800Z,14.00
2022-10-31T22:02:47.154Z,17.50
2022-10-31T22:05:01.218Z,16.80
2022-10-31T22:07:14.785Z,11.40
2022-10-31T22:09:28.521Z,17.80
2022-10-31T22:11:41.952Z,12.00
2022-10-31T22:13:55.781Z,15.60
2022-10-31T22:16:11.337Z,11.60
2022-10-31T22:18:27.074Z,8.00
2022-10-31T22:20:41.331Z,8.00
2022-10-31T22:22:56.021Z,13.80
2022-10-31T22:25:09.570Z,8.40
2022-10-31T22:27:23.070Z,14.40
2022-10-31T22:29:38.711Z,14.70
2022-10-31T22:31:58.552Z,13.70
2022-10-31T22:34:13.404Z,13.10
2022-10-31T22:36:28.425Z,18.00
2022-10-31T22:38:43.536Z,22.00
2022-10-31T22:41:00.425Z,19.20
2022-10-31T22:43:13.959Z,20.00
2022-10-31T22:45:28.045Z,17.30
2022-10-31T22:47:43.419Z,17.40
2022-10-31T22:49:59.963Z,9.50
2022-10-31T22:52:15.208Z,10.00
2022-10-31T22:54:29.505Z,11.20
2022-10-31T22:56:42.973Z,6.40
2022-10-31T22:58:57.312Z,4.40
2022-10-31T23:01:16.636Z,4.70
2022-10-31T23:03:31.257Z,3.30
2022-10-31T23:05:44.553Z,3.70
2022-10-31T23:07:57.842Z,3.70
2022-10-31T23:10:12.849Z,3.40
2022-10-31T23:12:42.516Z,4.30
2022-10-31T23:14:55.653Z,3.50
2022-10-31T23:17:08.847Z,2.70
2022-10-31T23:19:26.019Z,3.10
2022-10-31T23:22:01.013Z,4.10
2022-10-31T23:24:16.830Z,10.70
2022-10-31T23:26:46.237Z,17.70
2022-10-31T23:29:00.412Z,19.00
2022-10-31T23:31:13.669Z,14.20
2022-10-31T23:33:31.315Z,12.30
2022-10-31T23:35:46.774Z,11.00
2022-10-31T23:38:02.045Z,8.00
2022-10-31T23:40:16.549Z,9.40
2022-10-31T23:42:31.235Z,7.60
2022-10-31T23:44:45.499Z,8.10
2022-10-31T23:46:58.876Z,5.70
2022-10-31T23:49:13.550Z,5.40
2022-10-31T23:51:27.224Z,5.10
2022-10-31T23:53:40.382Z,3.00
2022-10-31T23:55:53.584Z,3.30
2022-10-31T23:58:07.744Z,2.40
